createdAt,value
2019-03-12T00:01:49.209Z,2.92
2019-03-12T00:04:22.848Z,2.98
2019-03-12T00:06:54.720Z,2.87
2019-03-12T00:09:25.172Z,2.45
2019-03-12T00:11:55.611Z,2.55
2019-03-12T00:14:26.050Z,2.62
2019-03-12T00:16:59.255Z,2.70
2019-03-12T00:19:32.817Z,2.40
2019-03-12T00:22:04.411Z,2.40
2019-03-12T00:24:35.035Z,3.15
2019-03-12T00:27:05.912Z,3.37
2019-03-12T00:29:36.333Z,2.80
2019-03-12T00:32:06.631Z,2.90
2019-03-12T00:34:37.123Z,2.62
2019-03-12T00:37:07.535Z,3.00
2019-03-12T00:39:37.981Z,3.70
2019-03-12T00:42:08.422Z,3.67
2019-03-12T00:44:38.923Z,3.10
2019-03-12T00:47:09.379Z,2.87
2019-03-12T00:52:14.107Z,3.35
2019-03-12T00:54:44.527Z,4.15
2019-03-12T00:57:19.576Z,3.25
2019-03-12T00:59:50.747Z,3.62
2019-03-12T01:02:21.711Z,4.58
2019-03-12T01:04:52.755Z,4.15
2019-03-12T01:07:23.215Z,3.58
2019-03-12T01:09:53.656Z,3.37
2019-03-12T01:12:24.868Z,4.08
2019-03-12T01:14:55.248Z,3.27
2019-03-12T01:17:29.727Z,3.67
2019-03-12T01:20:00.391Z,3.40
2019-03-12T01:22:31.207Z,3.58
2019-03-12T01:25:01.640Z,3.20
2019-03-12T01:27:32.227Z,3.05
2019-03-12T01:30:02.776Z,3.33
2019-03-12T01:32:45.837Z,3.70
2019-03-12T01:35:17.376Z,3.37
2019-03-12T01:37:47.919Z,4.08
2019-03-12T01:40:18.363Z,3.30
2019-03-12T01:42:52.533Z,3.47
2019-03-12T01:45:22.833Z,3.72
2019-03-12T01:47:53.393Z,3.92
2019-03-12T01:50:23.861Z,3.72
2019-03-12T01:52:54.490Z,3.55
2019-03-12T01:55:25.048Z,3.40
2019-03-12T01:57:58.212Z,4.00
2019-03-12T02:00:28.693Z,3.87
2019-03-12T02:02:59.442Z,3.42
2019-03-12T02:05:29.978Z,3.72
2019-03-12T02:08:03.273Z,4.28
2019-03-12T02:10:33.710Z,4.03
2019-03-12T02:13:05.005Z,3.90
2019-03-12T02:15:36.307Z,4.10
2019-03-12T02:18:07.304Z,4.42
2019-03-12T02:20:37.741Z,4.35
2019-03-12T02:23:08.602Z,4.47
2019-03-12T02:25:39.712Z,4.25
2019-03-12T02:28:10.176Z,4.33
2019-03-12T02:30:40.680Z,5.37
2019-03-12T02:33:11.173Z,5.10
2019-03-12T02:35:43.656Z,5.00
2019-03-12T02:38:14.046Z,4.45
2019-03-12T02:40:48.750Z,4.65
2019-03-12T02:43:19.740Z,4.95
2019-03-12T02:45:50.409Z,4.83
2019-03-12T02:48:20.836Z,3.92
2019-03-12T02:50:51.502Z,4.15
2019-03-12T02:53:23.166Z,4.05
2019-03-12T02:55:53.476Z,4.30
2019-03-12T02:58:24.968Z,5.45
2019-03-12T03:00:55.406Z,4.42
2019-03-12T03:03:25.888Z,4.90
2019-03-12T03:06:05.953Z,4.60
2019-03-12T03:08:42.626Z,4.25
2019-03-12T03:11:14.687Z,4.50
2019-03-12T03:13:45.204Z,4.50
2019-03-12T03:16:15.653Z,4.55
2019-03-12T03:18:46.026Z,5.10
2019-03-12T03:21:16.472Z,4.70
2019-03-12T03:23:47.006Z,4.50
2019-03-12T03:26:17.354Z,4.62
2019-03-12T03:28:47.938Z,4.25
2019-03-12T03:31:18.413Z,4.37
2019-03-12T03:33:48.861Z,4.05
2019-03-12T03:36:19.473Z,4.70
2019-03-12T03:38:51.873Z,4.47
2019-03-12T03:41:22.349Z,5.22
2019-03-12T03:43:52.797Z,4.10
2019-03-12T03:46:24.529Z,4.40
2019-03-12T03:48:54.957Z,4.50
2019-03-12T03:51:25.348Z,5.33
2019-03-12T03:53:55.740Z,5.08
2019-03-12T03:56:26.065Z,5.12
2019-03-12T03:58:56.504Z,4.47
2019-03-12T04:01:28.715Z,5.37
2019-03-12T04:03:59.090Z,5.67
2019-03-12T04:06:33.768Z,5.25
2019-03-12T04:09:02.016Z,5.92
2019-03-12T04:11:34.715Z,5.78
2019-03-12T04:14:05.270Z,5.67
2019-03-12T04:16:35.674Z,5.58
2019-03-12T04:19:06.646Z,6.75
2019-03-12T04:21:44.143Z,6.25
2019-03-12T04:24:20.756Z,6.37
2019-03-12T04:26:52.277Z,6.15
2019-03-12T04:29:22.647Z,6.12
2019-03-12T04:31:54.719Z,6.10
2019-03-12T04:34:34.540Z,5.95
2019-03-12T04:37:04.913Z,6.37
2019-03-12T04:39:35.265Z,7.10
2019-03-12T04:42:06.757Z,7.28
2019-03-12T04:44:37.247Z,7.17
2019-03-12T04:47:07.863Z,7.67
2019-03-12T04:49:38.198Z,7.78
2019-03-12T04:52:14.470Z,7.20
2019-03-12T04:54:44.802Z,7.22
2019-03-12T04:57:15.258Z,6.53
2019-03-12T04:59:45.688Z,8.58
2019-03-12T05:02:18.748Z,7.35
2019-03-12T05:04:49.723Z,5.87
2019-03-12T05:07:20.295Z,6.45
2019-03-12T05:09:52.574Z,6.55
2019-03-12T05:12:23.019Z,6.75
2019-03-12T05:14:53.467Z,6.12
2019-03-12T05:17:28.852Z,6.20
2019-03-12T05:19:59.243Z,5.62
2019-03-12T05:22:29.603Z,5.55
2019-03-12T05:25:10.348Z,5.70
2019-03-12T05:27:40.731Z,5.70
2019-03-12T05:30:13.991Z,5.08
2019-03-12T05:32:44.455Z,4.05
2019-03-12T05:35:15.480Z,3.62
2019-03-12T05:37:46.038Z,3.08
2019-03-12T05:40:22.289Z,3.22
2019-03-12T05:42:52.731Z,3.50
2019-03-12T05:45:23.193Z,4.28
2019-03-12T05:47:53.605Z,3.02
2019-03-12T05:50:24.566Z,2.90
2019-03-12T05:53:16.713Z,2.72
2019-03-12T05:55:49.597Z,2.87
2019-03-12T05:58:21.558Z,3.47
2019-03-12T06:00:54.805Z,2.75
2019-03-12T06:03:25.969Z,3.37
2019-03-12T06:05:56.382Z,3.33
2019-03-12T06:08:26.700Z,3.08
2019-03-12T06:10:57.130Z,3.33
2019-03-12T06:13:27.509Z,3.98
2019-03-12T06:15:57.937Z,5.10
2019-03-12T06:18:28.300Z,4.92
2019-03-12T06:20:58.772Z,4.72
2019-03-12T06:23:29.588Z,3.45
2019-03-12T06:26:01.599Z,3.85
2019-03-12T06:28:32.035Z,3.27
2019-03-12T06:31:21.568Z,4.08
2019-03-12T06:34:01.101Z,3.62
2019-03-12T06:36:39.559Z,3.70
2019-03-12T06:39:32.125Z,3.83
2019-03-12T06:42:16.045Z,3.90
2019-03-12T06:44:53.775Z,4.17
2019-03-12T06:47:46.506Z,3.58
2019-03-12T06:50:41.196Z,3.90
2019-03-12T06:53:31.172Z,4.70
2019-03-12T06:56:13.761Z,4.58
2019-03-12T06:59:18.307Z,4.83
2019-03-12T07:02:07.803Z,3.72
2019-03-12T07:04:50.359Z,3.50
2019-03-12T07:07:41.608Z,4.25
2019-03-12T07:10:36.672Z,3.25
2019-03-12T07:13:37.730Z,3.67
2019-03-12T07:16:12.756Z,2.95
2019-03-12T07:19:05.174Z,2.95
2019-03-12T07:21:49.519Z,3.45
2019-03-12T07:24:28.477Z,3.72
2019-03-12T07:27:24.511Z,3.75
2019-03-12T07:30:12.902Z,4.05
2019-03-12T07:33:04.523Z,3.47
2019-03-12T07:35:43.011Z,3.70
2019-03-12T07:38:22.010Z,2.95
2019-03-12T07:41:06.032Z,3.47
2019-03-12T07:43:49.581Z,3.33
2019-03-12T07:46:37.724Z,4.47
2019-03-12T07:49:29.987Z,3.35
2019-03-12T07:52:31.693Z,3.33
2019-03-12T07:55:25.465Z,3.67
2019-03-12T07:58:15.239Z,4.47
2019-03-12T08:00:52.425Z,3.60
2019-03-12T08:03:51.303Z,2.70
2019-03-12T08:06:33.413Z,3.20
2019-03-12T08:09:24.162Z,3.22
2019-03-12T08:12:13.668Z,2.67
2019-03-12T08:14:54.236Z,3.25
2019-03-12T08:17:42.460Z,2.60
2019-03-12T08:20:18.060Z,3.85
2019-03-12T08:22:55.153Z,3.72
2019-03-12T08:26:00.129Z,4.00
2019-03-12T08:28:39.879Z,3.75
2019-03-12T08:31:35.914Z,4.00
2019-03-12T08:34:17.063Z,3.72
2019-03-12T08:36:58.954Z,3.67
2019-03-12T08:39:52.446Z,3.62
2019-03-12T08:42:57.008Z,3.60
2019-03-12T08:45:45.471Z,3.42
2019-03-12T08:48:42.993Z,3.62
2019-03-12T08:51:30.202Z,3.20
2019-03-12T08:54:08.624Z,3.75
2019-03-12T08:57:01.152Z,3.60
2019-03-12T08:59:55.617Z,4.25
2019-03-12T09:02:45.071Z,3.85
2019-03-12T09:05:38.085Z,3.95
2019-03-12T09:08:28.318Z,2.80
2019-03-12T09:11:13.472Z,3.58
2019-03-12T09:14:07.895Z,3.33
2019-03-12T09:16:53.291Z,3.33
2019-03-12T09:19:52.241Z,3.37
2019-03-12T09:22:28.446Z,2.90
2019-03-12T09:25:12.199Z,3.12
2019-03-12T09:28:15.732Z,2.58
2019-03-12T09:31:18.416Z,2.98
2019-03-12T09:34:10.706Z,2.75
2019-03-12T09:37:18.510Z,2.45
2019-03-12T09:40:02.763Z,3.27
2019-03-12T09:42:52.245Z,2.67
2019-03-12T09:45:34.671Z,3.30
2019-03-12T09:48:31.308Z,3.17
2019-03-12T09:51:09.887Z,2.58
2019-03-12T09:54:00.768Z,2.40
2019-03-12T09:56:56.037Z,2.90
2019-03-12T09:59:44.992Z,2.70
2019-03-12T10:03:03.780Z,2.90
2019-03-12T10:06:07.178Z,3.83
2019-03-12T10:09:20.757Z,2.50
2019-03-12T10:12:17.212Z,3.25
2019-03-12T10:14:56.460Z,3.25
2019-03-12T10:17:58.147Z,3.17
2019-03-12T10:20:48.233Z,2.92
2019-03-12T10:23:46.575Z,2.62
2019-03-12T10:26:39.650Z,2.95
2019-03-12T10:29:16.135Z,2.90
2019-03-12T10:31:54.899Z,3.10
2019-03-12T10:34:31.547Z,3.02
2019-03-12T10:37:33.188Z,3.50
2019-03-12T10:40:12.532Z,3.58
2019-03-12T10:43:00.990Z,3.15
2019-03-12T10:45:44.139Z,2.83
2019-03-12T10:48:14.681Z,3.98
2019-03-12T10:50:45.143Z,2.55
2019-03-12T10:53:16.461Z,3.20
2019-03-12T10:55:46.894Z,2.77
2019-03-12T10:58:17.244Z,2.80
2019-03-12T11:00:47.841Z,2.92
2019-03-12T11:03:18.532Z,3.00
2019-03-12T11:05:48.928Z,3.05
2019-03-12T11:08:19.304Z,2.40
2019-03-12T11:10:49.742Z,2.98
2019-03-12T11:13:21.577Z,2.85
2019-03-12T11:15:51.960Z,3.00
2019-03-12T11:18:22.497Z,2.67
2019-03-12T11:20:58.514Z,3.47
2019-03-12T11:23:27.523Z,2.45
2019-03-12T11:25:59.267Z,3.20
2019-03-12T11:28:29.596Z,2.40
2019-03-12T11:31:00.941Z,3.65
2019-03-12T11:33:31.336Z,3.22
2019-03-12T11:36:01.713Z,2.65
2019-03-12T11:38:32.202Z,2.65
2019-03-12T11:41:03.047Z,2.92
2019-03-12T11:43:34.065Z,3.27
2019-03-12T11:46:05.040Z,2.80
2019-03-12T11:48:35.461Z,3.33
2019-03-12T11:51:06.187Z,3.25
2019-03-12T11:53:36.856Z,2.87
2019-03-12T11:56:07.347Z,2.77
2019-03-12T11:58:37.892Z,3.08
2019-03-12T12:01:08.660Z,3.55
2019-03-12T12:03:39.247Z,3.90
2019-03-12T12:06:09.747Z,2.85
2019-03-12T12:08:43.276Z,3.15
2019-03-12T12:11:17.052Z,3.33
2019-03-12T12:13:53.624Z,3.08
2019-03-12T12:16:32.225Z,2.70
2019-03-12T12:19:07.608Z,2.30
2019-03-12T12:21:40.925Z,2.83
2019-03-12T12:24:11.360Z,2.83
2019-03-12T12:26:41.830Z,2.37
2019-03-12T12:29:13.061Z,3.02
2019-03-12T12:31:43.553Z,2.98
2019-03-12T12:34:14.121Z,2.98
2019-03-12T12:36:44.447Z,3.08
2019-03-12T12:39:14.796Z,2.72
2019-03-12T12:41:45.440Z,2.70
2019-03-12T12:44:16.012Z,2.95
2019-03-12T12:46:46.352Z,2.92
2019-03-12T12:49:17.391Z,2.15
2019-03-12T12:51:47.733Z,2.60
2019-03-12T12:54:18.177Z,2.27
2019-03-12T12:56:48.629Z,2.98
2019-03-12T12:59:19.068Z,2.87
2019-03-12T13:01:49.419Z,3.10
2019-03-12T13:04:19.852Z,3.37
2019-03-12T13:06:50.278Z,3.22
2019-03-12T13:09:20.633Z,2.50
2019-03-12T13:11:51.118Z,3.00
2019-03-12T13:14:24.397Z,2.80
2019-03-12T13:16:55.071Z,3.00
2019-03-12T13:19:26.398Z,2.12
2019-03-12T13:21:56.755Z,2.60
2019-03-12T13:24:28.225Z,3.25
2019-03-12T13:26:58.740Z,3.10
2019-03-12T13:29:29.795Z,2.50
2019-03-12T13:32:12.901Z,2.60
2019-03-12T13:34:32.353Z,3.50
2019-03-12T13:37:02.707Z,2.27
2019-03-12T13:39:34.281Z,2.80
2019-03-12T13:42:04.787Z,2.98
2019-03-12T13:44:35.156Z,2.70
2019-03-12T13:47:05.860Z,2.77
2019-03-12T13:49:36.383Z,2.50
2019-03-12T13:52:06.823Z,2.33
2019-03-12T13:54:37.216Z,3.58
2019-03-12T13:57:07.607Z,2.42
2019-03-12T13:59:38.131Z,2.40
2019-03-12T14:02:08.507Z,2.55
2019-03-12T14:04:38.852Z,2.45
2019-03-12T14:07:09.332Z,2.20
2019-03-12T14:09:39.592Z,2.65
2019-03-12T14:12:10.103Z,2.62
2019-03-12T14:14:40.745Z,2.92
2019-03-12T14:17:12.231Z,3.05
2019-03-12T14:19:42.524Z,3.55
2019-03-12T14:22:13.070Z,2.50
2019-03-12T14:24:43.413Z,3.12
2019-03-12T14:27:13.928Z,2.80
2019-03-12T14:29:44.310Z,3.25
2019-03-12T14:32:15.504Z,3.12
2019-03-12T14:34:45.804Z,2.47
2019-03-12T14:37:16.475Z,2.85
2019-03-12T14:39:46.982Z,2.62
2019-03-12T14:42:17.466Z,2.80
2019-03-12T14:44:47.908Z,3.30
2019-03-12T14:47:18.692Z,3.52
2019-03-12T14:49:49.004Z,4.08
2019-03-12T14:52:25.268Z,3.92
2019-03-12T14:54:55.643Z,4.58
2019-03-12T14:57:26.060Z,4.87
2019-03-12T14:59:56.503Z,4.87
2019-03-12T15:02:26.799Z,4.78
2019-03-12T15:04:57.152Z,5.92
2019-03-12T15:07:27.661Z,5.12
2019-03-12T15:09:57.999Z,4.55
2019-03-12T15:12:28.433Z,4.70
2019-03-12T15:14:58.786Z,4.67
2019-03-12T15:17:29.749Z,4.95
2019-03-12T15:20:01.857Z,4.08
2019-03-12T15:22:32.274Z,3.67
2019-03-12T15:25:02.708Z,3.70
2019-03-12T15:27:33.196Z,3.77
2019-03-12T15:30:03.844Z,3.20
2019-03-12T15:32:34.259Z,3.45
2019-03-12T15:35:05.351Z,3.10
2019-03-12T15:37:35.767Z,3.62
2019-03-12T15:40:06.516Z,3.40
2019-03-12T15:42:38.268Z,3.30
2019-03-12T15:45:08.989Z,3.70
2019-03-12T15:47:40.117Z,3.20
2019-03-12T15:50:11.203Z,3.30
2019-03-12T15:52:42.307Z,3.47
2019-03-12T15:55:13.094Z,3.25
2019-03-12T15:57:44.120Z,3.70
2019-03-12T16:00:14.711Z,3.30
2019-03-12T16:02:45.343Z,4.25
2019-03-12T16:05:15.769Z,3.15
2019-03-12T16:07:47.870Z,3.60
2019-03-12T16:10:19.670Z,2.37
2019-03-12T16:12:50.317Z,3.50
2019-03-12T16:15:20.632Z,3.67
2019-03-12T16:17:50.990Z,3.60
2019-03-12T16:20:23.455Z,3.40
2019-03-12T16:22:53.992Z,3.62
2019-03-12T16:25:24.655Z,3.40
2019-03-12T16:27:55.937Z,4.00
2019-03-12T16:30:26.267Z,3.05
2019-03-12T16:32:56.624Z,4.22
2019-03-12T16:35:27.075Z,4.17
2019-03-12T16:38:09.746Z,4.08
2019-03-12T16:40:40.148Z,3.33
2019-03-12T16:43:11.389Z,3.40
2019-03-12T16:45:48.808Z,4.37
2019-03-12T16:48:20.053Z,4.45
2019-03-12T16:50:50.505Z,4.95
2019-03-12T16:53:26.704Z,3.98
2019-03-12T16:55:57.127Z,4.20
2019-03-12T16:58:32.910Z,3.83
2019-03-12T17:01:03.295Z,4.03
2019-03-12T17:03:33.644Z,3.75
2019-03-12T17:06:05.923Z,3.92
2019-03-12T17:08:36.301Z,3.90
2019-03-12T17:11:07.119Z,4.72
2019-03-12T17:13:37.911Z,5.60
2019-03-12T17:16:08.323Z,3.70
2019-03-12T17:18:38.924Z,4.12
2019-03-12T17:21:09.260Z,4.60
2019-03-12T17:23:39.675Z,3.55
2019-03-12T17:26:10.182Z,3.65
2019-03-12T17:28:40.479Z,4.22
2019-03-12T17:31:10.838Z,5.65
2019-03-12T17:33:41.263Z,5.65
2019-03-12T17:36:13.450Z,4.55
2019-03-12T17:38:46.958Z,5.25
2019-03-12T17:41:16.159Z,4.70
2019-03-12T17:43:46.851Z,4.83
2019-03-12T17:46:17.361Z,4.22
2019-03-12T17:48:47.784Z,4.20
2019-03-12T17:51:18.296Z,4.37
2019-03-12T17:53:52.753Z,3.90
2019-03-12T17:56:23.059Z,4.47
2019-03-12T17:58:53.384Z,4.20
2019-03-12T18:01:29.766Z,4.37
2019-03-12T18:03:56.596Z,4.58
2019-03-12T18:06:27.012Z,4.67
2019-03-12T18:08:57.413Z,5.35
2019-03-12T18:11:30.288Z,4.87
2019-03-12T18:14:01.288Z,5.12
2019-03-12T18:16:41.125Z,5.25
2019-03-12T18:19:04.719Z,5.03
2019-03-12T18:21:35.192Z,5.03
2019-03-12T18:24:05.530Z,4.83
2019-03-12T18:26:36.836Z,5.58
2019-03-12T18:29:07.227Z,5.75
2019-03-12T18:31:37.690Z,5.20
2019-03-12T18:34:09.173Z,5.53
2019-03-12T18:36:39.659Z,5.22
2019-03-12T18:39:10.571Z,4.85
2019-03-12T18:41:41.213Z,4.47
2019-03-12T18:44:11.669Z,4.70
2019-03-12T18:46:43.326Z,5.00
2019-03-12T18:49:15.198Z,5.08
2019-03-12T18:51:46.337Z,3.92
2019-03-12T18:54:17.219Z,5.05
2019-03-12T18:56:48.395Z,5.75
2019-03-12T18:59:18.822Z,6.90
2019-03-12T19:01:50.199Z,3.87
2019-03-12T19:04:20.615Z,2.17
2019-03-12T19:06:51.059Z,2.20
2019-03-12T19:09:21.427Z,1.37
2019-03-12T19:11:51.876Z,1.50
2019-03-12T19:14:22.220Z,1.00
2019-03-12T19:16:52.672Z,1.20
2019-03-12T19:19:23.946Z,1.22
2019-03-12T19:21:54.272Z,1.37
2019-03-12T19:24:24.587Z,1.67
2019-03-12T19:26:54.955Z,1.77
2019-03-12T19:29:26.263Z,2.42
2019-03-12T19:32:06.688Z,1.75
2019-03-12T19:34:38.880Z,1.20
2019-03-12T19:37:09.328Z,1.05
2019-03-12T19:39:39.830Z,1.20
2019-03-12T19:42:10.776Z,1.37
2019-03-12T19:44:41.232Z,2.05
2019-03-12T19:47:11.722Z,1.77
2019-03-12T19:49:42.066Z,1.75
2019-03-12T19:52:12.409Z,1.72
2019-03-12T19:54:42.900Z,1.60
2019-03-12T19:57:15.459Z,1.62
2019-03-12T19:59:46.052Z,2.20
2019-03-12T20:02:17.609Z,1.30
2019-03-12T20:04:48.070Z,1.35
2019-03-12T20:07:18.524Z,1.90
2019-03-12T20:10:19.170Z,1.80
2019-03-12T20:13:42.137Z,1.37
2019-03-12T20:16:46.421Z,1.87
2019-03-12T20:20:01.057Z,1.90
2019-03-12T20:23:19.645Z,1.90
2019-03-12T20:26:28.360Z,1.40
2019-03-12T20:29:49.080Z,1.27
2019-03-12T20:32:50.374Z,1.30
2019-03-12T20:36:26.457Z,1.37
2019-03-12T20:39:38.374Z,1.70
2019-03-12T20:43:00.668Z,1.67
2019-03-12T20:46:16.882Z,1.80
2019-03-12T20:49:33.990Z,1.87
2019-03-12T20:52:39.062Z,1.50
2019-03-12T20:56:09.161Z,1.95
2019-03-12T20:59:26.568Z,1.60
2019-03-12T21:02:47.760Z,2.62
2019-03-12T21:06:05.318Z,2.40
2019-03-12T21:09:25.375Z,1.60
2019-03-12T21:12:28.580Z,1.90
2019-03-12T21:15:28.889Z,2.17
2019-03-12T21:18:30.557Z,2.25
2019-03-12T21:21:41.222Z,2.40
2019-03-12T21:24:25.917Z,2.60
2019-03-12T21:27:44.527Z,2.40
2019-03-12T21:30:13.547Z,2.62
2019-03-12T21:32:44.031Z,2.92
2019-03-12T21:35:17.278Z,2.62
2019-03-12T21:37:48.380Z,2.70
2019-03-12T21:40:18.833Z,2.75
2019-03-12T21:42:49.189Z,2.72
2019-03-12T21:45:19.822Z,2.47
2019-03-12T21:47:50.258Z,2.65
2019-03-12T21:50:24.011Z,3.47
2019-03-12T21:52:53.248Z,2.80
2019-03-12T21:55:25.288Z,2.70
2019-03-12T21:57:55.647Z,2.42
2019-03-12T22:00:30.609Z,2.77
2019-03-12T22:03:01.116Z,2.62
2019-03-12T22:05:33.276Z,2.90
2019-03-12T22:08:03.675Z,2.70
2019-03-12T22:10:40.197Z,2.62
2019-03-12T22:13:10.683Z,2.60
2019-03-12T22:15:41.174Z,2.35
2019-03-12T22:18:11.593Z,2.50
2019-03-12T22:20:42.047Z,2.70
2019-03-12T22:23:24.779Z,2.45
2019-03-12T22:25:59.214Z,1.90
2019-03-12T22:28:29.669Z,2.10
2019-03-12T22:31:03.187Z,2.90
2019-03-12T22:33:33.638Z,2.35
2019-03-12T22:36:10.735Z,2.72
2019-03-12T22:38:41.053Z,2.30
2019-03-12T22:41:11.384Z,2.50
2019-03-12T22:43:41.816Z,2.85
2019-03-12T22:46:14.218Z,2.87
2019-03-12T22:48:45.163Z,2.52
2019-03-12T22:51:15.629Z,2.67
2019-03-12T22:53:45.965Z,2.40
2019-03-12T22:56:16.351Z,3.00
2019-03-12T22:58:47.665Z,2.45
2019-03-12T23:01:36.016Z,2.60
2019-03-12T23:04:24.134Z,1.95
2019-03-12T23:07:13.273Z,2.90
2019-03-12T23:09:43.009Z,2.87
2019-03-12T23:12:16.947Z,2.40
2019-03-12T23:14:49.765Z,2.42
2019-03-12T23:17:21.771Z,2.83
2019-03-12T23:19:52.352Z,2.47
2019-03-12T23:22:24.060Z,3.20
2019-03-12T23:24:54.460Z,2.98
2019-03-12T23:27:25.025Z,2.47
2019-03-12T23:29:55.957Z,2.37
2019-03-12T23:32:26.337Z,3.62
2019-03-12T23:34:56.736Z,2.98
2019-03-12T23:37:27.307Z,3.33
2019-03-12T23:39:58.011Z,3.00
2019-03-12T23:42:29.487Z,3.10
2019-03-12T23:44:59.842Z,3.22
2019-03-12T23:47:30.499Z,3.33
2019-03-12T23:50:01.850Z,3.30
2019-03-12T23:52:32.340Z,3.05
2019-03-12T23:55:04.555Z,3.33
2019-03-12T23:57:35.025Z,3.05
